sensor_id;sensor_type;location;lat;lon;timestamp;P1;durP1;ratioP1;P2;durP2;ratioP2
43817;SDS011;29868;47.360;18.984;2023-12-20T00:00:12;72.97;;;23.40;;
43817;SDS011;29868;47.360;18.984;2023-12-20T00:02:38;76.88;;;22.27;;
43817;SDS011;29868;47.360;18.984;2023-12-20T00:05:03;79.80;;;23.48;;
43817;SDS011;29868;47.360;18.984;2023-12-20T00:07:29;97.70;;;23.38;;
43817;SDS011;29868;47.360;18.984;2023-12-20T00:09:54;77.35;;;23.27;;
43817;SDS011;29868;47.360;18.984;2023-12-20T00:12:20;85.75;;;22.95;;
43817;SDS011;29868;47.360;18.984;2023-12-20T00:14:45;83.68;;;22.90;;
43817;SDS011;29868;47.360;18.984;2023-12-20T00:17:11;77.57;;;23.10;;
43817;SDS011;29868;47.360;18.984;2023-12-20T00:19:36;91.55;;;24.13;;
43817;SDS011;29868;47.360;18.984;2023-12-20T00:22:02;101.22;;;25.48;;
43817;SDS011;29868;47.360;18.984;2023-12-20T00:24:27;71.47;;;23.23;;
43817;SDS011;29868;47.360;18.984;2023-12-20T00:26:52;80.93;;;24.27;;
43817;SDS011;29868;47.360;18.984;2023-12-20T00:29:18;86.47;;;24.77;;
43817;SDS011;29868;47.360;18.984;2023-12-20T00:31:43;92.25;;;25.42;;
43817;SDS011;29868;47.360;18.984;2023-12-20T00:34:08;114.85;;;24.73;;
43817;SDS011;29868;47.360;18.984;2023-12-20T00:36:34;104.72;;;26.42;;
43817;SDS011;29868;47.360;18.984;2023-12-20T00:38:59;100.22;;;25.75;;
43817;SDS011;29868;47.360;18.984;2023-12-20T00:41:25;98.90;;;25.58;;
43817;SDS011;29868;47.360;18.984;2023-12-20T00:43:50;86.90;;;24.85;;
43817;SDS011;29868;47.360;18.984;2023-12-20T00:46:16;161.30;;;72.43;;
43817;SDS011;29868;47.360;18.984;2023-12-20T01:19:31;102.15;;;25.35;;
43817;SDS011;29868;47.360;18.984;2023-12-20T01:21:57;88.75;;;25.17;;
43817;SDS011;29868;47.360;18.984;2023-12-20T01:24:22;88.35;;;25.90;;
43817;SDS011;29868;47.360;18.984;2023-12-20T01:26:48;107.45;;;24.30;;
43817;SDS011;29868;47.360;18.984;2023-12-20T01:29:13;85.72;;;22.25;;
43817;SDS011;29868;47.360;18.984;2023-12-20T01:31:39;81.13;;;23.60;;
43817;SDS011;29868;47.360;18.984;2023-12-20T01:34:05;117.13;;;26.20;;
43817;SDS011;29868;47.360;18.984;2023-12-20T01:36:31;80.93;;;22.63;;
43817;SDS011;29868;47.360;18.984;2023-12-20T01:38:56;89.90;;;24.80;;
43817;SDS011;29868;47.360;18.984;2023-12-20T01:41:22;75.90;;;22.92;;
43817;SDS011;29868;47.360;18.984;2023-12-20T01:43:47;68.30;;;22.23;;
43817;SDS011;29868;47.360;18.984;2023-12-20T01:46:13;85.25;;;24.48;;
43817;SDS011;29868;47.360;18.984;2023-12-20T01:48:39;84.60;;;24.92;;
43817;SDS011;29868;47.360;18.984;2023-12-20T01:51:05;114.50;;;26.85;;
43817;SDS011;29868;47.360;18.984;2023-12-20T01:53:31;87.82;;;23.77;;
43817;SDS011;29868;47.360;18.984;2023-12-20T01:55:57;95.35;;;24.33;;
43817;SDS011;29868;47.360;18.984;2023-12-20T01:58:23;114.47;;;25.30;;
43817;SDS011;29868;47.360;18.984;2023-12-20T02:00:50;106.25;;;26.13;;
43817;SDS011;29868;47.360;18.984;2023-12-20T02:03:16;94.13;;;25.40;;
43817;SDS011;29868;47.360;18.984;2023-12-20T02:05:42;96.68;;;25.77;;
43817;SDS011;29868;47.360;18.984;2023-12-20T02:08:09;96.40;;;26.77;;
43817;SDS011;29868;47.360;18.984;2023-12-20T02:10:34;102.18;;;25.30;;
43817;SDS011;29868;47.360;18.984;2023-12-20T02:13:00;98.30;;;26.60;;
43817;SDS011;29868;47.360;18.984;2023-12-20T02:15:25;116.00;;;26.65;;
43817;SDS011;29868;47.360;18.984;2023-12-20T02:17:51;101.63;;;27.08;;
43817;SDS011;29868;47.360;18.984;2023-12-20T02:20:17;92.30;;;26.45;;
43817;SDS011;29868;47.360;18.984;2023-12-20T02:22:42;102.57;;;28.33;;
43817;SDS011;29868;47.360;18.984;2023-12-20T02:25:07;106.25;;;27.45;;
43817;SDS011;29868;47.360;18.984;2023-12-20T02:27:33;122.97;;;28.80;;
43817;SDS011;29868;47.360;18.984;2023-12-20T02:29:59;126.72;;;29.92;;
43817;SDS011;29868;47.360;18.984;2023-12-20T02:32:25;104.50;;;28.75;;
43817;SDS011;29868;47.360;18.984;2023-12-20T02:34:54;104.93;;;29.88;;
43817;SDS011;29868;47.360;18.984;2023-12-20T02:37:20;110.00;;;31.20;;
43817;SDS011;29868;47.360;18.984;2023-12-20T02:39:45;95.32;;;30.73;;
43817;SDS011;29868;47.360;18.984;2023-12-20T02:42:11;90.20;;;26.35;;
43817;SDS011;29868;47.360;18.984;2023-12-20T02:44:36;125.10;;;30.90;;
43817;SDS011;29868;47.360;18.984;2023-12-20T02:47:02;106.82;;;30.45;;
43817;SDS011;29868;47.360;18.984;2023-12-20T02:49:27;107.07;;;31.10;;
43817;SDS011;29868;47.360;18.984;2023-12-20T02:51:53;112.82;;;31.85;;
43817;SDS011;29868;47.360;18.984;2023-12-20T02:54:18;111.55;;;31.63;;
43817;SDS011;29868;47.360;18.984;2023-12-20T02:56:44;112.22;;;32.67;;
43817;SDS011;29868;47.360;18.984;2023-12-20T02:59:09;119.22;;;31.08;;
43817;SDS011;29868;47.360;18.984;2023-12-20T03:01:34;114.80;;;31.00;;
43817;SDS011;29868;47.360;18.984;2023-12-20T03:04:00;129.48;;;29.88;;
43817;SDS011;29868;47.360;18.984;2023-12-20T03:06:26;157.43;;;32.47;;
43817;SDS011;29868;47.360;18.984;2023-12-20T03:08:51;130.02;;;32.58;;
43817;SDS011;29868;47.360;18.984;2023-12-20T03:11:17;110.20;;;30.75;;
43817;SDS011;29868;47.360;18.984;2023-12-20T03:13:42;110.63;;;31.88;;
43817;SDS011;29868;47.360;18.984;2023-12-20T03:16:08;133.20;;;31.20;;
43817;SDS011;29868;47.360;18.984;2023-12-20T03:18:38;148.60;;;32.35;;
43817;SDS011;29868;47.360;18.984;2023-12-20T03:21:04;100.72;;;29.13;;
43817;SDS011;29868;47.360;18.984;2023-12-20T03:23:30;127.60;;;31.08;;
43817;SDS011;29868;47.360;18.984;2023-12-20T03:25:57;117.40;;;30.95;;
43817;SDS011;29868;47.360;18.984;2023-12-20T03:28:23;141.93;;;31.10;;
43817;SDS011;29868;47.360;18.984;2023-12-20T03:30:49;116.13;;;30.02;;
43817;SDS011;29868;47.360;18.984;2023-12-20T03:33:14;110.63;;;30.98;;
43817;SDS011;29868;47.360;18.984;2023-12-20T03:35:40;118.85;;;31.67;;
43817;SDS011;29868;47.360;18.984;2023-12-20T03:38:05;134.77;;;31.77;;
43817;SDS011;29868;47.360;18.984;2023-12-20T03:40:30;127.43;;;30.95;;
43817;SDS011;29868;47.360;18.984;2023-12-20T03:42:56;118.60;;;29.08;;
43817;SDS011;29868;47.360;18.984;2023-12-20T03:45:21;149.98;;;31.35;;
43817;SDS011;29868;47.360;18.984;2023-12-20T03:47:47;125.40;;;31.05;;
43817;SDS011;29868;47.360;18.984;2023-12-20T03:50:12;134.98;;;32.80;;
43817;SDS011;29868;47.360;18.984;2023-12-20T03:52:38;153.85;;;34.25;;
43817;SDS011;29868;47.360;18.984;2023-12-20T03:55:03;115.68;;;31.25;;
43817;SDS011;29868;47.360;18.984;2023-12-20T03:57:29;128.63;;;32.47;;
43817;SDS011;29868;47.360;18.984;2023-12-20T03:59:54;109.90;;;31.42;;
43817;SDS011;29868;47.360;18.984;2023-12-20T04:02:20;103.93;;;30.00;;
43817;SDS011;29868;47.360;18.984;2023-12-20T04:04:45;161.52;;;31.38;;
43817;SDS011;29868;47.360;18.984;2023-12-20T04:07:11;105.78;;;28.92;;
43817;SDS011;29868;47.360;18.984;2023-12-20T04:09:36;107.18;;;28.63;;
43817;SDS011;29868;47.360;18.984;2023-12-20T04:12:02;116.57;;;28.60;;
43817;SDS011;29868;47.360;18.984;2023-12-20T04:14:28;114.80;;;30.58;;
43817;SDS011;29868;47.360;18.984;2023-12-20T04:16:53;104.53;;;29.50;;
43817;SDS011;29868;47.360;18.984;2023-12-20T04:19:19;138.02;;;31.85;;
43817;SDS011;29868;47.360;18.984;2023-12-20T04:21:44;131.10;;;32.08;;
43817;SDS011;29868;47.360;18.984;2023-12-20T04:24:10;130.70;;;29.80;;
43817;SDS011;29868;47.360;18.984;2023-12-20T04:26:35;105.60;;;29.75;;
43817;SDS011;29868;47.360;18.984;2023-12-20T04:29:01;122.43;;;30.40;;
43817;SDS011;29868;47.360;18.984;2023-12-20T04:31:26;96.10;;;28.52;;
43817;SDS011;29868;47.360;18.984;2023-12-20T04:33:51;103.57;;;29.38;;
43817;SDS011;29868;47.360;18.984;2023-12-20T04:36:17;105.85;;;28.02;;
43817;SDS011;29868;47.360;18.984;2023-12-20T04:38:42;140.32;;;30.58;;
43817;SDS011;29868;47.360;18.984;2023-12-20T04:41:08;107.10;;;30.05;;
43817;SDS011;29868;47.360;18.984;2023-12-20T04:43:33;130.02;;;31.08;;
43817;SDS011;29868;47.360;18.984;2023-12-20T04:45:59;119.45;;;30.50;;
43817;SDS011;29868;47.360;18.984;2023-12-20T04:48:24;110.10;;;28.48;;
43817;SDS011;29868;47.360;18.984;2023-12-20T04:50:49;117.45;;;31.45;;
43817;SDS011;29868;47.360;18.984;2023-12-20T04:53:15;126.15;;;30.05;;
43817;SDS011;29868;47.360;18.984;2023-12-20T04:55:40;128.07;;;32.75;;
43817;SDS011;29868;47.360;18.984;2023-12-20T04:58:05;137.32;;;33.72;;
43817;SDS011;29868;47.360;18.984;2023-12-20T05:00:31;137.55;;;29.75;;
43817;SDS011;29868;47.360;18.984;2023-12-20T05:02:56;123.38;;;30.50;;
43817;SDS011;29868;47.360;18.984;2023-12-20T05:05:22;153.90;;;32.55;;
43817;SDS011;29868;47.360;18.984;2023-12-20T05:07:47;146.43;;;30.90;;
43817;SDS011;29868;47.360;18.984;2023-12-20T05:10:12;116.25;;;28.85;;
43817;SDS011;29868;47.360;18.984;2023-12-20T05:12:38;116.38;;;29.73;;
43817;SDS011;29868;47.360;18.984;2023-12-20T05:15:05;144.52;;;29.92;;
43817;SDS011;29868;47.360;18.984;2023-12-20T05:17:31;148.55;;;29.58;;
43817;SDS011;29868;47.360;18.984;2023-12-20T05:19:56;120.32;;;29.20;;
43817;SDS011;29868;47.360;18.984;2023-12-20T05:22:22;167.98;;;28.88;;
43817;SDS011;29868;47.360;18.984;2023-12-20T05:24:47;177.20;;;32.83;;
43817;SDS011;29868;47.360;18.984;2023-12-20T05:27:13;171.98;;;30.42;;
43817;SDS011;29868;47.360;18.984;2023-12-20T05:29:38;143.10;;;27.65;;
43817;SDS011;29868;47.360;18.984;2023-12-20T05:32:04;159.82;;;29.80;;
43817;SDS011;29868;47.360;18.984;2023-12-20T05:34:30;179.30;;;29.42;;
43817;SDS011;29868;47.360;18.984;2023-12-20T05:36:55;138.73;;;27.45;;
43817;SDS011;29868;47.360;18.984;2023-12-20T05:39:21;132.10;;;26.15;;
43817;SDS011;29868;47.360;18.984;2023-12-20T05:41:46;119.97;;;27.45;;
43817;SDS011;29868;47.360;18.984;2023-12-20T05:44:12;129.43;;;26.27;;
43817;SDS011;29868;47.360;18.984;2023-12-20T05:46:38;166.05;;;27.58;;
43817;SDS011;29868;47.360;18.984;2023-12-20T05:49:04;175.00;;;29.50;;
43817;SDS011;29868;47.360;18.984;2023-12-20T05:51:30;197.73;;;30.48;;
43817;SDS011;29868;47.360;18.984;2023-12-20T05:53:55;148.57;;;28.75;;
43817;SDS011;29868;47.360;18.984;2023-12-20T05:56:20;173.07;;;30.00;;
43817;SDS011;29868;47.360;18.984;2023-12-20T05:58:46;138.30;;;28.52;;
43817;SDS011;29868;47.360;18.984;2023-12-20T06:01:11;138.13;;;28.30;;
43817;SDS011;29868;47.360;18.984;2023-12-20T06:03:37;138.23;;;29.95;;
43817;SDS011;29868;47.360;18.984;2023-12-20T06:06:06;94.95;;;28.10;;
43817;SDS011;29868;47.360;18.984;2023-12-20T06:08:32;162.10;;;30.30;;
43817;SDS011;29868;47.360;18.984;2023-12-20T06:10:57;170.45;;;29.30;;
43817;SDS011;29868;47.360;18.984;2023-12-20T06:13:23;248.13;;;30.75;;
43817;SDS011;29868;47.360;18.984;2023-12-20T06:15:48;212.00;;;29.90;;
43817;SDS011;29868;47.360;18.984;2023-12-20T06:18:14;243.57;;;29.73;;
43817;SDS011;29868;47.360;18.984;2023-12-20T06:20:39;220.88;;;29.77;;
43817;SDS011;29868;47.360;18.984;2023-12-20T06:23:04;157.07;;;28.95;;
43817;SDS011;29868;47.360;18.984;2023-12-20T06:25:30;181.70;;;29.83;;
43817;SDS011;29868;47.360;18.984;2023-12-20T06:27:55;178.90;;;27.63;;
43817;SDS011;29868;47.360;18.984;2023-12-20T06:30:21;142.60;;;28.52;;
43817;SDS011;29868;47.360;18.984;2023-12-20T06:32:46;231.10;;;30.92;;
43817;SDS011;29868;47.360;18.984;2023-12-20T06:35:12;143.30;;;29.08;;
43817;SDS011;29868;47.360;18.984;2023-12-20T06:37:38;173.55;;;28.55;;
43817;SDS011;29868;47.360;18.984;2023-12-20T06:40:07;186.02;;;29.75;;
43817;SDS011;29868;47.360;18.984;2023-12-20T06:42:33;214.05;;;29.38;;
43817;SDS011;29868;47.360;18.984;2023-12-20T06:44:59;192.07;;;29.25;;
43817;SDS011;29868;47.360;18.984;2023-12-20T06:47:24;188.23;;;28.73;;
43817;SDS011;29868;47.360;18.984;2023-12-20T06:49:49;153.73;;;28.88;;
43817;SDS011;29868;47.360;18.984;2023-12-20T06:52:15;123.10;;;28.80;;
43817;SDS011;29868;47.360;18.984;2023-12-20T06:54:40;132.13;;;27.95;;
43817;SDS011;29868;47.360;18.984;2023-12-20T06:57:06;101.38;;;26.10;;
43817;SDS011;29868;47.360;18.984;2023-12-20T06:59:32;88.63;;;27.85;;
43817;SDS011;29868;47.360;18.984;2023-12-20T07:01:57;104.85;;;27.40;;
43817;SDS011;29868;47.360;18.984;2023-12-20T07:04:23;93.03;;;27.90;;
43817;SDS011;29868;47.360;18.984;2023-12-20T07:06:48;115.38;;;26.73;;
43817;SDS011;29868;47.360;18.984;2023-12-20T07:09:17;130.77;;;27.20;;
43817;SDS011;29868;47.360;18.984;2023-12-20T07:11:42;110.70;;;28.25;;
43817;SDS011;29868;47.360;18.984;2023-12-20T07:14:07;145.80;;;28.55;;
43817;SDS011;29868;47.360;18.984;2023-12-20T07:16:33;96.35;;;25.10;;
43817;SDS011;29868;47.360;18.984;2023-12-20T07:18:59;136.88;;;27.17;;
43817;SDS011;29868;47.360;18.984;2023-12-20T07:21:25;159.48;;;28.98;;
43817;SDS011;29868;47.360;18.984;2023-12-20T07:23:50;140.30;;;29.48;;
43817;SDS011;29868;47.360;18.984;2023-12-20T07:26:17;108.85;;;29.45;;
43817;SDS011;29868;47.360;18.984;2023-12-20T07:28:43;118.03;;;33.45;;
43817;SDS011;29868;47.360;18.984;2023-12-20T07:31:08;97.97;;;31.40;;
43817;SDS011;29868;47.360;18.984;2023-12-20T07:33:34;102.22;;;28.70;;
43817;SDS011;29868;47.360;18.984;2023-12-20T07:35:59;90.10;;;27.50;;
43817;SDS011;29868;47.360;18.984;2023-12-20T07:38:25;93.55;;;28.83;;
43817;SDS011;29868;47.360;18.984;2023-12-20T07:40:51;134.25;;;29.17;;
43817;SDS011;29868;47.360;18.984;2023-12-20T07:43:16;122.78;;;28.75;;
43817;SDS011;29868;47.360;18.984;2023-12-20T07:45:42;113.78;;;28.27;;
43817;SDS011;29868;47.360;18.984;2023-12-20T07:48:07;122.60;;;29.30;;
43817;SDS011;29868;47.360;18.984;2023-12-20T07:50:33;105.78;;;30.83;;
43817;SDS011;29868;47.360;18.984;2023-12-20T07:52:59;103.70;;;32.08;;
43817;SDS011;29868;47.360;18.984;2023-12-20T07:55:25;107.20;;;28.48;;
43817;SDS011;29868;47.360;18.984;2023-12-20T07:57:51;96.88;;;34.08;;
43817;SDS011;29868;47.360;18.984;2023-12-20T08:00:17;81.30;;;30.25;;
43817;SDS011;29868;47.360;18.984;2023-12-20T08:02:42;109.32;;;31.02;;
43817;SDS011;29868;47.360;18.984;2023-12-20T08:05:08;89.15;;;29.70;;
43817;SDS011;29868;47.360;18.984;2023-12-20T08:07:33;97.60;;;30.50;;
43817;SDS011;29868;47.360;18.984;2023-12-20T08:09:59;98.15;;;31.23;;
43817;SDS011;29868;47.360;18.984;2023-12-20T08:12:24;84.20;;;29.10;;
43817;SDS011;29868;47.360;18.984;2023-12-20T08:14:52;100.78;;;30.40;;
43817;SDS011;29868;47.360;18.984;2023-12-20T08:17:18;97.00;;;31.30;;
43817;SDS011;29868;47.360;18.984;2023-12-20T08:19:44;106.28;;;30.63;;
43817;SDS011;29868;47.360;18.984;2023-12-20T08:22:09;79.80;;;29.77;;
43817;SDS011;29868;47.360;18.984;2023-12-20T08:24:35;93.95;;;30.52;;
43817;SDS011;29868;47.360;18.984;2023-12-20T08:27:00;87.70;;;30.80;;
43817;SDS011;29868;47.360;18.984;2023-12-20T08:29:26;102.43;;;29.30;;
43817;SDS011;29868;47.360;18.984;2023-12-20T08:31:52;92.78;;;29.42;;
43817;SDS011;29868;47.360;18.984;2023-12-20T08:34:18;106.65;;;29.73;;
43817;SDS011;29868;47.360;18.984;2023-12-20T08:36:44;110.72;;;28.27;;
43817;SDS011;29868;47.360;18.984;2023-12-20T08:39:09;88.07;;;27.52;;
43817;SDS011;29868;47.360;18.984;2023-12-20T08:41:35;92.78;;;30.70;;
43817;SDS011;29868;47.360;18.984;2023-12-20T08:44:01;97.45;;;31.08;;
43817;SDS011;29868;47.360;18.984;2023-12-20T08:46:26;91.32;;;32.38;;
43817;SDS011;29868;47.360;18.984;2023-12-20T08:48:51;75.93;;;29.67;;
43817;SDS011;29868;47.360;18.984;2023-12-20T08:51:17;87.45;;;30.10;;
43817;SDS011;29868;47.360;18.984;2023-12-20T08:53:43;90.07;;;29.42;;
43817;SDS011;29868;47.360;18.984;2023-12-20T08:56:10;108.50;;;30.77;;
43817;SDS011;29868;47.360;18.984;2023-12-20T08:58:35;84.40;;;31.52;;
43817;SDS011;29868;47.360;18.984;2023-12-20T09:01:01;80.93;;;33.28;;
43817;SDS011;29868;47.360;18.984;2023-12-20T09:03:26;89.60;;;31.92;;
43817;SDS011;29868;47.360;18.984;2023-12-20T09:05:52;87.85;;;31.17;;
43817;SDS011;29868;47.360;18.984;2023-12-20T09:08:17;77.85;;;31.60;;
43817;SDS011;29868;47.360;18.984;2023-12-20T09:10:43;99.45;;;33.35;;
43817;SDS011;29868;47.360;18.984;2023-12-20T09:13:09;91.25;;;31.15;;
43817;SDS011;29868;47.360;18.984;2023-12-20T09:15:34;108.57;;;38.95;;
43817;SDS011;29868;47.360;18.984;2023-12-20T09:18:00;86.00;;;34.88;;
43817;SDS011;29868;47.360;18.984;2023-12-20T09:20:26;87.38;;;32.13;;
43817;SDS011;29868;47.360;18.984;2023-12-20T09:22:52;91.60;;;33.22;;
43817;SDS011;29868;47.360;18.984;2023-12-20T09:25:18;82.05;;;33.03;;
43817;SDS011;29868;47.360;18.984;2023-12-20T09:27:43;77.32;;;31.90;;
43817;SDS011;29868;47.360;18.984;2023-12-20T09:30:09;89.85;;;32.10;;
43817;SDS011;29868;47.360;18.984;2023-12-20T09:32:34;105.88;;;31.13;;
43817;SDS011;29868;47.360;18.984;2023-12-20T09:35:00;114.43;;;33.65;;
43817;SDS011;29868;47.360;18.984;2023-12-20T09:37:26;85.00;;;32.30;;
43817;SDS011;29868;47.360;18.984;2023-12-20T09:39:52;83.90;;;32.15;;
43817;SDS011;29868;47.360;18.984;2023-12-20T09:42:21;84.88;;;31.17;;
43817;SDS011;29868;47.360;18.984;2023-12-20T09:45:03;74.00;;;32.22;;
43817;SDS011;29868;47.360;18.984;2023-12-20T09:47:33;68.63;;;30.15;;
43817;SDS011;29868;47.360;18.984;2023-12-20T09:49:58;65.53;;;29.55;;
43817;SDS011;29868;47.360;18.984;2023-12-20T09:52:24;75.15;;;26.85;;
43817;SDS011;29868;47.360;18.984;2023-12-20T09:54:50;86.35;;;32.78;;
43817;SDS011;29868;47.360;18.984;2023-12-20T09:57:17;75.25;;;31.08;;
43817;SDS011;29868;47.360;18.984;2023-12-20T09:59:43;64.68;;;29.55;;
43817;SDS011;29868;47.360;18.984;2023-12-20T10:02:09;63.28;;;28.65;;
43817;SDS011;29868;47.360;18.984;2023-12-20T10:04:40;60.60;;;29.73;;
43817;SDS011;29868;47.360;18.984;2023-12-20T10:07:11;49.97;;;25.55;;
43817;SDS011;29868;47.360;18.984;2023-12-20T10:09:36;54.80;;;26.67;;
43817;SDS011;29868;47.360;18.984;2023-12-20T10:12:02;60.05;;;28.38;;
43817;SDS011;29868;47.360;18.984;2023-12-20T10:14:30;63.78;;;31.05;;
43817;SDS011;29868;47.360;18.984;2023-12-20T10:17:01;60.03;;;27.67;;
43817;SDS011;29868;47.360;18.984;2023-12-20T10:19:33;65.57;;;29.42;;
43817;SDS011;29868;47.360;18.984;2023-12-20T10:21:59;59.40;;;28.20;;
43817;SDS011;29868;47.360;18.984;2023-12-20T10:24:25;62.33;;;29.75;;
43817;SDS011;29868;47.360;18.984;2023-12-20T10:27:06;62.47;;;30.70;;
43817;SDS011;29868;47.360;18.984;2023-12-20T10:29:36;59.88;;;30.30;;
43817;SDS011;29868;47.360;18.984;2023-12-20T10:34:53;67.80;;;31.15;;
43817;SDS011;29868;47.360;18.984;2023-12-20T10:37:20;74.05;;;32.05;;
43817;SDS011;29868;47.360;18.984;2023-12-20T10:39:49;63.20;;;30.55;;
43817;SDS011;29868;47.360;18.984;2023-12-20T10:42:18;58.80;;;28.67;;
43817;SDS011;29868;47.360;18.984;2023-12-20T10:44:46;60.58;;;30.50;;
43817;SDS011;29868;47.360;18.984;2023-12-20T10:47:12;54.15;;;27.42;;
43817;SDS011;29868;47.360;18.984;2023-12-20T10:49:38;54.55;;;28.50;;
43817;SDS011;29868;47.360;18.984;2023-12-20T10:52:04;51.42;;;27.27;;
43817;SDS011;29868;47.360;18.984;2023-12-20T10:54:31;52.00;;;26.48;;
43817;SDS011;29868;47.360;18.984;2023-12-20T10:56:57;47.90;;;26.52;;
43817;SDS011;29868;47.360;18.984;2023-12-20T10:59:23;47.25;;;26.25;;
43817;SDS011;29868;47.360;18.984;2023-12-20T11:01:50;46.05;;;25.67;;
43817;SDS011;29868;47.360;18.984;2023-12-20T11:04:20;50.22;;;27.50;;
43817;SDS011;29868;47.360;18.984;2023-12-20T11:09:24;76.55;;;39.90;;
43817;SDS011;29868;47.360;18.984;2023-12-20T11:17:13;57.38;;;33.25;;
43817;SDS011;29868;47.360;18.984;2023-12-20T11:22:21;49.70;;;28.35;;
43817;SDS011;29868;47.360;18.984;2023-12-20T11:24:47;46.45;;;28.00;;
43817;SDS011;29868;47.360;18.984;2023-12-20T11:27:13;46.17;;;27.60;;
43817;SDS011;29868;47.360;18.984;2023-12-20T11:29:40;49.40;;;29.77;;
43817;SDS011;29868;47.360;18.984;2023-12-20T11:35:16;42.80;;;27.13;;
43817;SDS011;29868;47.360;18.984;2023-12-20T11:37:43;44.60;;;27.67;;
43817;SDS011;29868;47.360;18.984;2023-12-20T11:40:15;43.58;;;27.83;;
43817;SDS011;29868;47.360;18.984;2023-12-20T11:42:43;46.55;;;29.58;;
43817;SDS011;29868;47.360;18.984;2023-12-20T11:45:14;42.10;;;25.30;;
43817;SDS011;29868;47.360;18.984;2023-12-20T11:47:45;40.28;;;24.33;;
43817;SDS011;29868;47.360;18.984;2023-12-20T11:50:11;40.92;;;24.88;;
43817;SDS011;29868;47.360;18.984;2023-12-20T11:52:37;40.65;;;24.58;;
43817;SDS011;29868;47.360;18.984;2023-12-20T11:55:03;37.65;;;24.23;;
43817;SDS011;29868;47.360;18.984;2023-12-20T11:57:29;39.17;;;23.60;;
43817;SDS011;29868;47.360;18.984;2023-12-20T11:59:55;39.00;;;25.33;;
43817;SDS011;29868;47.360;18.984;2023-12-20T12:02:21;37.22;;;24.67;;
43817;SDS011;29868;47.360;18.984;2023-12-20T12:04:48;33.20;;;22.10;;
43817;SDS011;29868;47.360;18.984;2023-12-20T12:07:14;37.70;;;23.83;;
43817;SDS011;29868;47.360;18.984;2023-12-20T12:09:39;35.72;;;22.73;;
43817;SDS011;29868;47.360;18.984;2023-12-20T12:12:05;37.58;;;22.92;;
43817;SDS011;29868;47.360;18.984;2023-12-20T12:14:31;34.47;;;21.92;;
43817;SDS011;29868;47.360;18.984;2023-12-20T12:16:57;40.35;;;24.60;;
43817;SDS011;29868;47.360;18.984;2023-12-20T12:19:22;37.85;;;25.08;;
43817;SDS011;29868;47.360;18.984;2023-12-20T12:22:03;30.95;;;21.02;;
43817;SDS011;29868;47.360;18.984;2023-12-20T12:24:35;20.92;;;13.25;;
43817;SDS011;29868;47.360;18.984;2023-12-20T12:27:01;18.08;;;11.18;;
43817;SDS011;29868;47.360;18.984;2023-12-20T12:29:27;13.95;;;9.55;;
43817;SDS011;29868;47.360;18.984;2023-12-20T12:31:52;11.90;;;7.95;;
43817;SDS011;29868;47.360;18.984;2023-12-20T12:34:18;12.15;;;8.48;;
43817;SDS011;29868;47.360;18.984;2023-12-20T12:36:43;13.90;;;8.60;;
43817;SDS011;29868;47.360;18.984;2023-12-20T12:39:12;12.38;;;8.52;;
43817;SDS011;29868;47.360;18.984;2023-12-20T12:41:40;11.32;;;7.78;;
43817;SDS011;29868;47.360;18.984;2023-12-20T12:44:05;12.15;;;8.10;;
43817;SDS011;29868;47.360;18.984;2023-12-20T12:46:30;10.35;;;6.53;;
43817;SDS011;29868;47.360;18.984;2023-12-20T12:48:56;9.90;;;6.18;;
43817;SDS011;29868;47.360;18.984;2023-12-20T12:51:21;9.38;;;5.97;;
43817;SDS011;29868;47.360;18.984;2023-12-20T12:53:47;8.75;;;6.00;;
43817;SDS011;29868;47.360;18.984;2023-12-20T12:56:12;11.90;;;7.82;;
43817;SDS011;29868;47.360;18.984;2023-12-20T12:58:38;9.77;;;6.93;;
43817;SDS011;29868;47.360;18.984;2023-12-20T13:01:04;7.55;;;4.82;;
43817;SDS011;29868;47.360;18.984;2023-12-20T13:03:29;10.27;;;6.60;;
43817;SDS011;29868;47.360;18.984;2023-12-20T13:05:55;9.32;;;5.63;;
43817;SDS011;29868;47.360;18.984;2023-12-20T13:08:20;10.73;;;6.82;;
43817;SDS011;29868;47.360;18.984;2023-12-20T13:10:46;10.63;;;7.18;;
43817;SDS011;29868;47.360;18.984;2023-12-20T13:13:11;10.63;;;7.75;;
43817;SDS011;29868;47.360;18.984;2023-12-20T13:15:36;14.55;;;8.52;;
43817;SDS011;29868;47.360;18.984;2023-12-20T13:18:02;9.27;;;6.25;;
43817;SDS011;29868;47.360;18.984;2023-12-20T13:20:29;12.40;;;7.20;;
43817;SDS011;29868;47.360;18.984;2023-12-20T13:22:55;9.60;;;6.30;;
43817;SDS011;29868;47.360;18.984;2023-12-20T13:25:20;14.85;;;9.35;;
43817;SDS011;29868;47.360;18.984;2023-12-20T13:27:45;13.45;;;9.68;;
43817;SDS011;29868;47.360;18.984;2023-12-20T13:30:11;12.35;;;8.80;;
43817;SDS011;29868;47.360;18.984;2023-12-20T13:32:37;15.02;;;9.63;;
43817;SDS011;29868;47.360;18.984;2023-12-20T13:35:02;15.43;;;10.13;;
43817;SDS011;29868;47.360;18.984;2023-12-20T13:37:29;11.25;;;7.07;;
43817;SDS011;29868;47.360;18.984;2023-12-20T13:39:54;12.55;;;8.15;;
43817;SDS011;29868;47.360;18.984;2023-12-20T13:42:20;12.02;;;7.18;;
43817;SDS011;29868;47.360;18.984;2023-12-20T13:44:45;15.73;;;10.27;;
43817;SDS011;29868;47.360;18.984;2023-12-20T13:47:11;20.15;;;12.38;;
43817;SDS011;29868;47.360;18.984;2023-12-20T13:49:37;14.73;;;9.95;;
43817;SDS011;29868;47.360;18.984;2023-12-20T13:52:03;17.52;;;11.35;;
43817;SDS011;29868;47.360;18.984;2023-12-20T13:54:29;14.90;;;9.57;;
43817;SDS011;29868;47.360;18.984;2023-12-20T13:56:54;17.17;;;8.52;;
43817;SDS011;29868;47.360;18.984;2023-12-20T13:59:20;19.92;;;12.73;;
43817;SDS011;29868;47.360;18.984;2023-12-20T14:01:45;22.98;;;13.68;;
43817;SDS011;29868;47.360;18.984;2023-12-20T14:04:11;21.92;;;13.32;;
43817;SDS011;29868;47.360;18.984;2023-12-20T14:06:36;25.13;;;15.35;;
43817;SDS011;29868;47.360;18.984;2023-12-20T14:09:02;19.02;;;11.52;;
43817;SDS011;29868;47.360;18.984;2023-12-20T14:11:28;15.52;;;10.02;;
43817;SDS011;29868;47.360;18.984;2023-12-20T14:13:54;16.48;;;10.32;;
43817;SDS011;29868;47.360;18.984;2023-12-20T14:16:23;17.15;;;10.43;;
43817;SDS011;29868;47.360;18.984;2023-12-20T14:18:51;39.40;;;24.98;;
43817;SDS011;29868;47.360;18.984;2023-12-20T14:21:22;37.22;;;24.70;;
43817;SDS011;29868;47.360;18.984;2023-12-20T14:23:48;16.05;;;10.77;;
43817;SDS011;29868;47.360;18.984;2023-12-20T14:26:14;15.48;;;9.02;;
43817;SDS011;29868;47.360;18.984;2023-12-20T14:28:43;14.00;;;9.05;;
43817;SDS011;29868;47.360;18.984;2023-12-20T14:31:08;12.85;;;7.80;;
43817;SDS011;29868;47.360;18.984;2023-12-20T14:33:35;14.90;;;8.82;;
43817;SDS011;29868;47.360;18.984;2023-12-20T14:36:03;13.93;;;9.15;;
43817;SDS011;29868;47.360;18.984;2023-12-20T14:38:30;14.88;;;9.32;;
43817;SDS011;29868;47.360;18.984;2023-12-20T14:40:56;17.27;;;10.55;;
43817;SDS011;29868;47.360;18.984;2023-12-20T14:43:22;15.27;;;9.63;;
43817;SDS011;29868;47.360;18.984;2023-12-20T14:45:48;15.27;;;9.35;;